Time;durP1;ratioP1;P1;durP2;ratioP2;P2;SDS_P1;SDS_P2;PMS_P1;PMS_P2;Temp;Humidity;BMP_temperature;BMP_pressure;BME280_temperature;BME280_humidity;BME280_pressure;Samples;Min_cycle;Max_cycle;Signal;HPM_P1;HPM_P2
2023/03/29 00:00:52;;;;;;;0.20;0.20;;;;;;;;;;5014529;28;20242;-62
2023/03/29 00:03:19;;;;;;;0.20;0.20;;;;;;;;;;5024133;28;20246;-63
2023/03/29 00:05:45;;;;;;;0.20;0.20;;;;;;;;;;5014020;28;20255;-62
2023/03/29 00:08:13;;;;;;;0.20;0.20;;;;;;;;;;5023592;28;20208;-62
2023/03/29 00:10:39;;;;;;;0.20;0.20;;;;;;;;;;5014241;28;20242;-62
2023/03/29 00:13:06;;;;;;;0.20;0.20;;;;;;;;;;5023489;28;20278;-62
2023/03/29 00:15:32;;;;;;;0.20;0.20;;;;;;;;;;5014106;28;20311;-62
2023/03/29 00:18:00;;;;;;;0.20;0.20;;;;;;;;;;5023401;28;20569;-63
2023/03/29 00:20:27;;;;;;;0.20;0.20;;;;;;;;;;5013985;28;20239;-63
2023/03/29 00:22:53;;;;;;;0.20;0.20;;;;;;;;;;5024112;28;20484;-63
2023/03/29 00:25:20;;;;;;;0.40;0.40;;;;;;;;;;5014369;28;20511;-63
2023/03/29 00:27:46;;;;;;;0.20;0.20;;;;;;;;;;5023505;28;20247;-63
2023/03/29 00:30:13;;;;;;;0.20;0.20;;;;;;;;;;5014315;28;20250;-67
2023/03/29 00:32:40;;;;;;;0.37;0.37;;;;;;;;;;5023112;28;20203;-67
2023/03/29 00:35:08;;;;;;;0.20;0.20;;;;;;;;;;5024487;28;20278;-63
2023/03/29 00:37:35;;;;;;;4.53;4.13;;;;;;;;;;4996998;28;20257;-63
2023/03/29 00:40:03;;;;;;;0.20;0.20;;;;;;;;;;5024487;28;20210;-63
2023/03/29 00:42:29;;;;;;;0.20;0.20;;;;;;;;;;5012979;28;20243;-63
2023/03/29 00:45:06;;;;;;;0.30;0.30;;;;;;;;;;5024924;28;20274;-63
2023/03/29 00:47:36;;;;;;;0.20;0.20;;;;;;;;;;4997420;28;20211;-63
2023/03/29 00:50:04;;;;;;;0.20;0.20;;;;;;;;;;5024864;28;20243;-63
2023/03/29 00:52:33;;;;;;;0.30;0.30;;;;;;;;;;5013580;28;20307;-64
2023/03/29 00:55:02;;;;;;;0.20;0.20;;;;;;;;;;5024964;28;20250;-62
2023/03/29 00:57:30;;;;;;;0.67;0.67;;;;;;;;;;5013460;28;20302;-64
2023/03/29 00:59:57;;;;;;;16.20;14.97;;;;;;;;;;5024498;28;20290;-64
2023/03/29 01:02:25;;;;;;;0.20;0.20;;;;;;;;;;5013070;28;20477;-64
2023/03/29 01:04:55;;;;;;;0.20;0.20;;;;;;;;;;5024442;28;20213;-64
2023/03/29 01:07:22;;;;;;;0.20;0.20;;;;;;;;;;5013117;28;20310;-64
2023/03/29 01:09:52;;;;;;;0.20;0.20;;;;;;;;;;5024188;28;22154;-64
2023/03/29 01:12:20;;;;;;;0.20;0.20;;;;;;;;;;5012984;28;20314;-63
2023/03/29 01:14:50;;;;;;;0.20;0.20;;;;;;;;;;5024489;28;20242;-64
2023/03/29 01:17:20;;;;;;;0.20;0.20;;;;;;;;;;5013259;28;20443;-64
2023/03/29 01:19:50;;;;;;;0.20;0.20;;;;;;;;;;5027471;28;20252;-64
2023/03/29 01:22:24;;;;;;;0.20;0.20;;;;;;;;;;5017163;28;20245;-64
2023/03/29 01:25:01;;;;;;;0.20;0.20;;;;;;;;;;5028411;28;20205;-64
2023/03/29 01:27:49;;;;;;;0.20;0.20;;;;;;;;;;5017009;28;20243;-64
2023/03/29 01:30:21;;;;;;;0.20;0.20;;;;;;;;;;5017991;28;20290;-64
2023/03/29 01:32:49;;;;;;;0.20;0.20;;;;;;;;;;5027191;28;20206;-64
2023/03/29 01:35:18;;;;;;;0.20;0.20;;;;;;;;;;5017269;28;20241;-64
2023/03/29 01:37:47;;;;;;;0.20;0.20;;;;;;;;;;5026766;28;20508;-62
2023/03/29 01:40:13;;;;;;;0.30;0.30;;;;;;;;;;5017383;28;20206;-62
2023/03/29 01:42:45;;;;;;;0.20;0.20;;;;;;;;;;5026279;28;20267;-66
2023/03/29 01:45:18;;;;;;;0.20;0.20;;;;;;;;;;5017135;28;20231;-64
2023/03/29 01:47:47;;;;;;;0.20;0.20;;;;;;;;;;5026301;28;20221;-64
2023/03/29 01:50:17;;;;;;;0.20;0.20;;;;;;;;;;5017370;28;20399;-64
2023/03/29 01:52:48;;;;;;;0.20;0.20;;;;;;;;;;5026571;28;20197;-64
2023/03/29 01:55:17;;;;;;;0.20;0.20;;;;;;;;;;5016768;28;20260;-64
2023/03/29 01:57:44;;;;;;;0.20;0.20;;;;;;;;;;5025927;28;20229;-64
2023/03/29 02:00:13;;;;;;;0.20;0.20;;;;;;;;;;5016776;28;20281;-64
2023/03/29 02:02:42;;;;;;;0.20;0.20;;;;;;;;;;5026205;28;20194;-64
2023/03/29 02:05:11;;;;;;;0.20;0.20;;;;;;;;;;5016738;28;20407;-65
2023/03/29 02:07:39;;;;;;;0.30;0.30;;;;;;;;;;5025680;28;20197;-64
2023/03/29 02:10:07;;;;;;;0.20;0.20;;;;;;;;;;5026433;28;20483;-64
2023/03/29 02:12:33;;;;;;;0.20;0.20;;;;;;;;;;4999636;28;20230;-64
2023/03/29 02:14:59;;;;;;;0.27;0.27;;;;;;;;;;5026907;28;20273;-64
2023/03/29 02:17:27;;;;;;;0.20;0.20;;;;;;;;;;5015578;28;20246;-64
2023/03/29 02:19:56;;;;;;;0.20;0.20;;;;;;;;;;5026746;28;20241;-64
2023/03/29 02:22:24;;;;;;;0.20;0.20;;;;;;;;;;5015436;28;20239;-64
2023/03/29 02:24:52;;;;;;;0.20;0.20;;;;;;;;;;5026759;28;20234;-64
2023/03/29 02:27:18;;;;;;;0.43;0.43;;;;;;;;;;5015240;28;20279;-64
2023/03/29 02:29:45;;;;;;;0.20;0.20;;;;;;;;;;5026478;28;20215;-64
2023/03/29 02:32:14;;;;;;;0.20;0.20;;;;;;;;;;5015087;28;20282;-64
2023/03/29 02:34:46;;;;;;;0.20;0.20;;;;;;;;;;5026877;28;20496;-64
2023/03/29 02:37:16;;;;;;;0.20;0.20;;;;;;;;;;5015723;28;20506;-65
2023/03/29 02:39:43;;;;;;;0.20;0.20;;;;;;;;;;5026792;28;20210;-64
2023/03/29 02:42:10;;;;;;;0.20;0.20;;;;;;;;;;5015393;28;20300;-64
2023/03/29 02:44:38;;;;;;;0.30;0.30;;;;;;;;;;5026745;28;20282;-63
2023/03/29 02:47:08;;;;;;;0.40;0.40;;;;;;;;;;5015444;28;20646;-64
2023/03/29 02:49:34;;;;;;;0.50;0.50;;;;;;;;;;5026531;28;20274;-64
2023/03/29 02:52:03;;;;;;;3.80;3.50;;;;;;;;;;5014980;28;20266;-64
2023/03/29 02:54:31;;;;;;;0.20;0.20;;;;;;;;;;5026233;28;20442;-64
2023/03/29 02:56:59;;;;;;;0.20;0.20;;;;;;;;;;5014869;28;20583;-64
2023/03/29 02:59:26;;;;;;;0.20;0.20;;;;;;;;;;5026003;28;20214;-64
2023/03/29 03:01:53;;;;;;;0.20;0.20;;;;;;;;;;5014954;28;20266;-64
2023/03/29 03:04:19;;;;;;;0.20;0.20;;;;;;;;;;5026191;28;20211;-64
2023/03/29 03:06:46;;;;;;;0.20;0.20;;;;;;;;;;5015166;28;20619;-64
2023/03/29 03:09:13;;;;;;;0.20;0.20;;;;;;;;;;5025799;28;20278;-64
2023/03/29 03:11:41;;;;;;;0.20;0.20;;;;;;;;;;5014713;28;20248;-64
2023/03/29 03:14:07;;;;;;;0.20;0.20;;;;;;;;;;5025393;28;20287;-64
2023/03/29 03:16:34;;;;;;;0.30;0.30;;;;;;;;;;5014616;28;20265;-64
2023/03/29 03:19:00;;;;;;;0.30;0.30;;;;;;;;;;5025326;28;20281;-64
2023/03/29 03:21:27;;;;;;;2.10;2.10;;;;;;;;;;5014583;28;20306;-64
2023/03/29 03:23:54;;;;;;;0.20;0.20;;;;;;;;;;5025173;28;20245;-64
2023/03/29 03:26:20;;;;;;;0.27;0.27;;;;;;;;;;5014765;28;20320;-64
2023/03/29 03:28:48;;;;;;;0.20;0.20;;;;;;;;;;5025002;28;20354;-64
2023/03/29 03:31:15;;;;;;;0.23;0.23;;;;;;;;;;5014605;28;20575;-63
2023/03/29 03:33:41;;;;;;;0.20;0.20;;;;;;;;;;5024812;28;20410;-62
2023/03/29 03:36:08;;;;;;;0.20;0.20;;;;;;;;;;5014523;28;20244;-64
2023/03/29 03:38:35;;;;;;;0.20;0.20;;;;;;;;;;5024731;28;20553;-64
2023/03/29 03:41:02;;;;;;;0.20;0.20;;;;;;;;;;5013921;28;20484;-64
2023/03/29 03:43:28;;;;;;;5.23;4.77;;;;;;;;;;5024520;28;20252;-64
2023/03/29 03:45:56;;;;;;;0.20;0.20;;;;;;;;;;5014610;28;20264;-64
2023/03/29 03:48:23;;;;;;;0.20;0.20;;;;;;;;;;5024077;28;20391;-64
2023/03/29 03:50:50;;;;;;;0.20;0.20;;;;;;;;;;5014268;28;20310;-64
2023/03/29 03:53:16;;;;;;;0.20;0.20;;;;;;;;;;5024261;28;20278;-64
2023/03/29 03:55:47;;;;;;;0.20;0.20;;;;;;;;;;5014450;28;20243;-64
2023/03/29 03:58:13;;;;;;;0.20;0.20;;;;;;;;;;5023764;28;20278;-64
2023/03/29 04:00:40;;;;;;;0.20;0.20;;;;;;;;;;5014088;28;20242;-64
2023/03/29 04:03:08;;;;;;;0.20;0.20;;;;;;;;;;5023903;28;20207;-64
2023/03/29 04:05:38;;;;;;;0.20;0.20;;;;;;;;;;5014927;28;20261;-64
2023/03/29 04:08:06;;;;;;;0.20;0.20;;;;;;;;;;5024356;28;20206;-64
2023/03/29 04:10:33;;;;;;;0.20;0.20;;;;;;;;;;5014795;28;20480;-64
2023/03/29 04:13:01;;;;;;;0.20;0.20;;;;;;;;;;5023745;28;20232;-66
2023/03/29 04:15:27;;;;;;;0.20;0.20;;;;;;;;;;5014634;28;20300;-64
2023/03/29 04:17:54;;;;;;;0.20;0.20;;;;;;;;;;5024216;28;20253;-64
2023/03/29 04:20:23;;;;;;;0.50;0.50;;;;;;;;;;5014985;28;20421;-64
2023/03/29 04:22:50;;;;;;;0.20;0.20;;;;;;;;;;5023697;28;20491;-64
2023/03/29 04:25:16;;;;;;;0.20;0.20;;;;;;;;;;5014667;28;20365;-64
2023/03/29 04:27:43;;;;;;;0.20;0.20;;;;;;;;;;5023345;28;20223;-64
2023/03/29 04:30:10;;;;;;;0.20;0.20;;;;;;;;;;5014417;28;20245;-64
2023/03/29 04:32:36;;;;;;;0.20;0.20;;;;;;;;;;5023292;28;20286;-64
2023/03/29 04:35:04;;;;;;;0.20;0.20;;;;;;;;;;5024839;28;20245;-64
2023/03/29 04:37:32;;;;;;;0.20;0.20;;;;;;;;;;5013493;28;20247;-64
2023/03/29 04:39:59;;;;;;;0.20;0.20;;;;;;;;;;5024041;28;20206;-64
2023/03/29 04:42:25;;;;;;;0.20;0.20;;;;;;;;;;5012930;28;20237;-64
2023/03/29 04:44:52;;;;;;;0.20;0.20;;;;;;;;;;5024368;28;20207;-64
2023/03/29 04:47:18;;;;;;;0.20;0.20;;;;;;;;;;5012847;28;20610;-64
2023/03/29 04:49:45;;;;;;;0.20;0.20;;;;;;;;;;5024146;28;20237;-64
2023/03/29 04:52:11;;;;;;;0.20;0.20;;;;;;;;;;5012689;28;20525;-64
2023/03/29 04:54:39;;;;;;;0.20;0.20;;;;;;;;;;5024109;28;20239;-64
2023/03/29 04:57:06;;;;;;;2.17;1.23;;;;;;;;;;5012869;28;20315;-67
2023/03/29 04:59:32;;;;;;;0.83;0.83;;;;;;;;;;5024052;28;20290;-64
2023/03/29 05:01:59;;;;;;;0.20;0.20;;;;;;;;;;5013002;28;20302;-64
2023/03/29 05:04:27;;;;;;;0.63;0.63;;;;;;;;;;5023717;28;20212;-64
2023/03/29 05:06:54;;;;;;;0.20;0.20;;;;;;;;;;5013180;28;20311;-64
2023/03/29 05:09:20;;;;;;;0.20;0.20;;;;;;;;;;5024079;28;20208;-64
2023/03/29 05:11:48;;;;;;;0.20;0.20;;;;;;;;;;5012797;28;20240;-64
2023/03/29 05:14:15;;;;;;;0.20;0.20;;;;;;;;;;5023904;28;20429;-64
2023/03/29 05:16:42;;;;;;;0.20;0.20;;;;;;;;;;5013233;28;20240;-64
2023/03/29 05:19:10;;;;;;;0.20;0.20;;;;;;;;;;5023755;28;20238;-64
2023/03/29 05:21:36;;;;;;;0.20;0.20;;;;;;;;;;5012691;28;20240;-64
2023/03/29 05:24:03;;;;;;;0.20;0.20;;;;;;;;;;5023624;28;20212;-64
2023/03/29 05:26:29;;;;;;;0.20;0.20;;;;;;;;;;5012872;28;20567;-64
2023/03/29 05:28:57;;;;;;;0.20;0.20;;;;;;;;;;5023437;28;20238;-64
2023/03/29 05:31:23;;;;;;;0.20;0.20;;;;;;;;;;5012859;28;20270;-64
2023/03/29 05:33:50;;;;;;;5.77;4.27;;;;;;;;;;5023649;28;20237;-64
2023/03/29 05:36:18;;;;;;;0.20;0.20;;;;;;;;;;5013124;28;20242;-64
2023/03/29 05:38:45;;;;;;;0.20;0.20;;;;;;;;;;5023837;28;20512;-64
2023/03/29 05:41:12;;;;;;;0.20;0.20;;;;;;;;;;5013197;28;20263;-65
2023/03/29 05:43:38;;;;;;;0.20;0.20;;;;;;;;;;5023315;28;20230;-64
2023/03/29 05:46:06;;;;;;;0.27;0.27;;;;;;;;;;5013473;28;20299;-64
2023/03/29 05:48:32;;;;;;;0.20;0.20;;;;;;;;;;5023715;28;20431;-64
2023/03/29 05:50:59;;;;;;;0.20;0.20;;;;;;;;;;5013277;28;20274;-64
2023/03/29 05:53:26;;;;;;;0.20;0.20;;;;;;;;;;5023300;28;20236;-64
2023/03/29 05:55:53;;;;;;;0.30;0.30;;;;;;;;;;5013427;28;20246;-64
2023/03/29 05:58:20;;;;;;;0.10;0.10;;;;;;;;;;5023221;28;20283;-64
2023/03/29 06:00:48;;;;;;;0.20;0.20;;;;;;;;;;5013589;28;20571;-64
2023/03/29 06:03:17;;;;;;;0.13;0.13;;;;;;;;;;5022918;28;20204;-64
2023/03/29 06:05:46;;;;;;;0.20;0.20;;;;;;;;;;5016686;28;20564;-64
2023/03/29 06:08:13;;;;;;;0.20;0.20;;;;;;;;;;5026732;28;20430;-64
2023/03/29 06:10:39;;;;;;;0.17;0.17;;;;;;;;;;5016787;28;20314;-64
2023/03/29 06:13:06;;;;;;;0.20;0.20;;;;;;;;;;5026621;28;20236;-64
2023/03/29 06:15:33;;;;;;;0.20;0.20;;;;;;;;;;5016917;28;20263;-64
2023/03/29 06:18:00;;;;;;;0.20;0.20;;;;;;;;;;5026046;28;20196;-64
2023/03/29 06:20:28;;;;;;;0.20;0.20;;;;;;;;;;5016951;28;20248;-64
2023/03/29 06:22:54;;;;;;;0.20;0.20;;;;;;;;;;5026193;28;20263;-64
2023/03/29 06:25:21;;;;;;;0.20;0.20;;;;;;;;;;5017471;28;20307;-65
2023/03/29 06:27:47;;;;;;;0.13;0.13;;;;;;;;;;5025526;28;20561;-66
2023/03/29 06:30:14;;;;;;;0.20;0.20;;;;;;;;;;5017037;28;20402;-65
2023/03/29 06:32:40;;;;;;;0.30;0.30;;;;;;;;;;5025845;28;20266;-65
2023/03/29 06:35:07;;;;;;;0.20;0.20;;;;;;;;;;5023606;28;20210;-67
2023/03/29 06:37:35;;;;;;;0.13;0.13;;;;;;;;;;5025273;28;20220;-65
2023/03/29 06:40:02;;;;;;;0.20;0.20;;;;;;;;;;5026526;28;20207;-65
2023/03/29 06:42:28;;;;;;;0.20;0.20;;;;;;;;;;5015103;28;20244;-65
2023/03/29 06:44:54;;;;;;;0.20;0.20;;;;;;;;;;5025919;28;20216;-65
2023/03/29 06:47:23;;;;;;;0.20;0.20;;;;;;;;;;5015136;28;20306;-65
2023/03/29 06:49:49;;;;;;;0.20;0.20;;;;;;;;;;5027000;28;20231;-65
2023/03/29 06:52:15;;;;;;;0.20;0.20;;;;;;;;;;5015362;28;20299;-65
2023/03/29 06:54:43;;;;;;;0.20;0.20;;;;;;;;;;5026954;28;20240;-65
2023/03/29 06:57:11;;;;;;;0.20;0.20;;;;;;;;;;5015498;28;20244;-65
2023/03/29 06:59:38;;;;;;;0.20;0.20;;;;;;;;;;5026733;28;20227;-65
2023/03/29 07:02:04;;;;;;;0.20;0.20;;;;;;;;;;5015669;28;20447;-65
2023/03/29 07:04:31;;;;;;;0.30;0.30;;;;;;;;;;5026885;28;20205;-66
2023/03/29 07:07:01;;;;;;;0.10;0.10;;;;;;;;;;5014703;28;20607;-65
2023/03/29 07:09:28;;;;;;;0.20;0.20;;;;;;;;;;5026386;28;20442;-66
2023/03/29 07:11:57;;;;;;;0.20;0.20;;;;;;;;;;5014921;28;20233;-69
2023/03/29 07:14:27;;;;;;;0.20;0.20;;;;;;;;;;5025970;28;20219;-65
2023/03/29 07:16:53;;;;;;;0.20;0.20;;;;;;;;;;5014079;28;20244;-65
2023/03/29 07:19:21;;;;;;;0.20;0.20;;;;;;;;;;5026226;28;20496;-65
2023/03/29 07:21:47;;;;;;;0.20;0.20;;;;;;;;;;5015129;28;20242;-65
2023/03/29 07:24:14;;;;;;;0.20;0.20;;;;;;;;;;5026185;28;20297;-65
2023/03/29 07:26:40;;;;;;;0.20;0.20;;;;;;;;;;5015251;28;20312;-63
2023/03/29 07:29:08;;;;;;;0.20;0.20;;;;;;;;;;5025123;28;20205;-65
2023/03/29 07:31:39;;;;;;;0.80;0.80;;;;;;;;;;5014554;28;20343;-65
2023/03/29 07:34:09;;;;;;;0.20;0.20;;;;;;;;;;5024828;28;20439;-65
2023/03/29 07:36:35;;;;;;;0.20;0.20;;;;;;;;;;5014381;28;20302;-63
2023/03/29 07:39:02;;;;;;;0.10;0.10;;;;;;;;;;5024966;28;20279;-65
2023/03/29 07:41:29;;;;;;;0.60;0.60;;;;;;;;;;5014450;28;20247;-65
2023/03/29 07:43:55;;;;;;;0.20;0.20;;;;;;;;;;5025275;28;20210;-65
2023/03/29 07:46:23;;;;;;;0.47;0.47;;;;;;;;;;5015238;28;20263;-65
2023/03/29 07:48:50;;;;;;;0.20;0.20;;;;;;;;;;5025531;28;20211;-65
2023/03/29 07:51:16;;;;;;;0.30;0.30;;;;;;;;;;5015089;28;20467;-64
2023/03/29 07:53:43;;;;;;;0.20;0.20;;;;;;;;;;5025331;28;20228;-65
2023/03/29 07:56:09;;;;;;;0.70;0.70;;;;;;;;;;5014873;28;20246;-65
2023/03/29 07:58:36;;;;;;;0.20;0.20;;;;;;;;;;5024698;28;20208;-66
2023/03/29 08:01:02;;;;;;;0.20;0.20;;;;;;;;;;5014435;28;20300;-67
2023/03/29 08:03:30;;;;;;;0.20;0.20;;;;;;;;;;5024397;28;20231;-65
2023/03/29 08:05:56;;;;;;;0.20;0.20;;;;;;;;;;5014451;28;20254;-65
2023/03/29 08:08:23;;;;;;;0.20;0.20;;;;;;;;;;5025021;28;20284;-65
2023/03/29 08:10:50;;;;;;;0.10;0.10;;;;;;;;;;5015452;28;20300;-65
2023/03/29 08:13:17;;;;;;;0.60;0.60;;;;;;;;;;5024739;28;20532;-65
2023/03/29 08:15:46;;;;;;;0.20;0.20;;;;;;;;;;5015192;28;20250;-65
2023/03/29 08:18:12;;;;;;;0.20;0.20;;;;;;;;;;5024276;28;20215;-65
2023/03/29 08:20:41;;;;;;;0.20;0.20;;;;;;;;;;5014277;28;20256;-65
2023/03/29 08:23:07;;;;;;;0.13;0.13;;;;;;;;;;5024111;28;20235;-65
2023/03/29 08:25:35;;;;;;;0.20;0.20;;;;;;;;;;5014718;28;20247;-65
2023/03/29 08:28:01;;;;;;;0.93;0.93;;;;;;;;;;5023669;28;20204;-65
2023/03/29 08:30:28;;;;;;;0.20;0.20;;;;;;;;;;5014485;28;20267;-65
2023/03/29 08:32:54;;;;;;;0.40;0.40;;;;;;;;;;5023935;28;20544;-65
2023/03/29 08:35:21;;;;;;;0.20;0.20;;;;;;;;;;5014351;28;20288;-64
2023/03/29 08:37:48;;;;;;;0.20;0.20;;;;;;;;;;5023885;28;20268;-64
2023/03/29 08:40:17;;;;;;;0.20;0.20;;;;;;;;;;5014417;28;20272;-64
2023/03/29 08:42:50;;;;;;;2.77;1.27;;;;;;;;;;5023381;28;20192;-65
2023/03/29 08:45:23;;;;;;;0.10;0.10;;;;;;;;;;5014350;28;20260;-64
2023/03/29 08:47:53;;;;;;;1.50;0.77;;;;;;;;;;5023515;28;20260;-66
2023/03/29 08:50:20;;;;;;;0.20;0.20;;;;;;;;;;5014125;28;20205;-64
2023/03/29 08:52:49;;;;;;;4.07;0.90;;;;;;;;;;5023485;28;20553;-64
2023/03/29 08:55:20;;;;;;;0.50;0.50;;;;;;;;;;5014388;28;20205;-63
2023/03/29 08:57:48;;;;;;;0.20;0.20;;;;;;;;;;5023358;28;20196;-64
2023/03/29 09:00:19;;;;;;;0.47;0.40;;;;;;;;;;5014229;28;20283;-64
2023/03/29 09:02:46;;;;;;;0.27;0.27;;;;;;;;;;5022972;28;20221;-64
2023/03/29 09:05:19;;;;;;;0.20;0.20;;;;;;;;;;5013970;28;20258;-64
2023/03/29 09:07:45;;;;;;;0.10;0.10;;;;;;;;;;5023009;28;20508;-64
2023/03/29 09:10:14;;;;;;;0.20;0.20;;;;;;;;;;5013613;28;20277;-64
2023/03/29 09:12:48;;;;;;;0.37;0.37;;;;;;;;;;5022914;28;20289;-63
2023/03/29 09:15:18;;;;;;;1.13;0.87;;;;;;;;;;5013827;28;20394;-63
2023/03/29 09:17:59;;;;;;;0.20;0.20;;;;;;;;;;5022821;28;20239;-63
2023/03/29 09:20:37;;;;;;;0.20;0.20;;;;;;;;;;5014213;28;20235;-63
2023/03/29 09:23:10;;;;;;;0.20;0.20;;;;;;;;;;5023211;28;20212;-63
2023/03/29 09:25:43;;;;;;;0.10;0.10;;;;;;;;;;5013864;28;20250;-63
2023/03/29 09:28:13;;;;;;;0.20;0.20;;;;;;;;;;5023340;28;20212;-63
2023/03/29 09:30:41;;;;;;;0.20;0.20;;;;;;;;;;5013917;28;20452;-62
2023/03/29 09:33:12;;;;;;;0.10;0.10;;;;;;;;;;5022953;28;20225;-63
2023/03/29 09:35:41;;;;;;;0.17;0.17;;;;;;;;;;5013445;28;20476;-63
2023/03/29 09:38:10;;;;;;;0.10;0.10;;;;;;;;;;5023329;28;20465;-63
2023/03/29 09:40:39;;;;;;;0.10;0.10;;;;;;;;;;5016709;28;20312;-63
2023/03/29 09:43:08;;;;;;;0.10;0.10;;;;;;;;;;5027087;28;20418;-63
2023/03/29 09:45:37;;;;;;;1.27;1.27;;;;;;;;;;5017630;28;20262;-63
2023/03/29 09:48:08;;;;;;;0.30;0.30;;;;;;;;;;5026883;28;20210;-63
2023/03/29 09:50:35;;;;;;;0.57;0.53;;;;;;;;;;5017317;28;20264;-63
2023/03/29 09:53:02;;;;;;;0.20;0.20;;;;;;;;;;5026258;28;20275;-63
2023/03/29 09:55:29;;;;;;;0.10;0.10;;;;;;;;;;5016808;28;20239;-63
2023/03/29 09:57:57;;;;;;;0.37;0.37;;;;;;;;;;5026287;28;20194;-63
2023/03/29 10:00:24;;;;;;;1.70;0.63;;;;;;;;;;5016637;28;20285;-63
2023/03/29 10:02:53;;;;;;;0.20;0.20;;;;;;;;;;5026045;28;20501;-63
2023/03/29 10:05:20;;;;;;;1.23;1.23;;;;;;;;;;5016620;28;20205;-63
2023/03/29 10:07:48;;;;;;;0.93;0.93;;;;;;;;;;5025745;28;20252;-65
2023/03/29 10:10:20;;;;;;;0.10;0.10;;;;;;;;;;5016859;28;20207;-63
2023/03/29 10:12:49;;;;;;;1.13;1.13;;;;;;;;;;5026533;28;20441;-64
2023/03/29 10:15:16;;;;;;;0.53;0.53;;;;;;;;;;5017369;28;20261;-63
2023/03/29 10:17:44;;;;;;;0.13;0.13;;;;;;;;;;5026713;28;20462;-64
2023/03/29 10:20:15;;;;;;;0.10;0.10;;;;;;;;;;5017596;28;20206;-64
2023/03/29 10:22:47;;;;;;;1.13;1.07;;;;;;;;;;5026457;28;20255;-64
2023/03/29 10:25:14;;;;;;;0.10;0.10;;;;;;;;;;5017189;28;20198;-66
2023/03/29 10:27:41;;;;;;;0.10;0.10;;;;;;;;;;5026409;28;20357;-65
2023/03/29 10:30:10;;;;;;;0.10;0.10;;;;;;;;;;5020030;28;20528;-66
2023/03/29 10:32:39;;;;;;;1.90;1.80;;;;;;;;;;5026071;28;20379;-66
2023/03/29 10:35:08;;;;;;;0.43;0.40;;;;;;;;;;5027220;28;20465;-65
2023/03/29 10:37:39;;;;;;;2.47;1.57;;;;;;;;;;4999549;28;20212;-66
2023/03/29 10:40:06;;;;;;;0.10;0.10;;;;;;;;;;5027414;28;20437;-65
2023/03/29 10:42:32;;;;;;;1.07;1.07;;;;;;;;;;4999071;28;20229;-66
2023/03/29 10:44:59;;;;;;;0.10;0.10;;;;;;;;;;5027032;28;20237;-65
2023/03/29 10:47:26;;;;;;;0.40;0.40;;;;;;;;;;5015969;28;20515;-65
2023/03/29 10:49:53;;;;;;;0.13;0.13;;;;;;;;;;5026497;28;20269;-66
2023/03/29 10:52:20;;;;;;;0.10;0.10;;;;;;;;;;5014891;28;20314;-66
2023/03/29 10:54:49;;;;;;;0.10;0.10;;;;;;;;;;5026208;28;20231;-66
2023/03/29 10:57:20;;;;;;;0.10;0.10;;;;;;;;;;5014670;28;20308;-65
2023/03/29 10:59:52;;;;;;;0.73;0.73;;;;;;;;;;5026001;28;20218;-66
2023/03/29 11:02:37;;;;;;;0.10;0.10;;;;;;;;;;5014943;28;20589;-65
2023/03/29 11:05:16;;;;;;;0.40;0.40;;;;;;;;;;5025737;28;20254;-65
2023/03/29 11:07:47;;;;;;;0.10;0.10;;;;;;;;;;5025460;28;20195;-67
2023/03/29 11:10:28;;;;;;;0.10;0.10;;;;;;;;;;5015550;28;20391;-66
2023/03/29 11:12:58;;;;;;;2.23;1.30;;;;;;;;;;5024959;28;20222;-66
2023/03/29 11:15:32;;;;;;;2.13;1.47;;;;;;;;;;5015555;28;20279;-65
2023/03/29 11:18:04;;;;;;;0.47;0.47;;;;;;;;;;5024749;28;20267;-66
2023/03/29 11:20:38;;;;;;;0.10;0.10;;;;;;;;;;5016055;28;20433;-66
2023/03/29 11:23:12;;;;;;;0.10;0.10;;;;;;;;;;5025541;28;20443;-65
2023/03/29 11:25:46;;;;;;;0.23;0.23;;;;;;;;;;5015103;28;20247;-64
2023/03/29 11:28:17;;;;;;;0.10;0.10;;;;;;;;;;5025242;28;20402;-63
2023/03/29 11:30:47;;;;;;;0.10;0.10;;;;;;;;;;5015928;28;20237;-63
2023/03/29 11:33:19;;;;;;;0.10;0.10;;;;;;;;;;5024989;28;20256;-64
2023/03/29 11:35:50;;;;;;;0.10;0.10;;;;;;;;;;5015608;28;20304;-67
2023/03/29 11:38:22;;;;;;;0.10;0.10;;;;;;;;;;5024768;28;20211;-64
2023/03/29 11:41:01;;;;;;;0.10;0.10;;;;;;;;;;5015270;28;20314;-64
2023/03/29 11:43:30;;;;;;;3.07;2.87;;;;;;;;;;5024943;28;20208;-64
2023/03/29 11:46:00;;;;;;;0.10;0.10;;;;;;;;;;5014970;28;20301;-64
2023/03/29 11:48:29;;;;;;;0.10;0.10;;;;;;;;;;5025163;28;20274;-63
2023/03/29 11:50:58;;;;;;;0.10;0.10;;;;;;;;;;5015013;28;20245;-64
2023/03/29 11:53:26;;;;;;;0.10;0.10;;;;;;;;;;5025077;28;20566;-64
2023/03/29 11:55:54;;;;;;;0.10;0.10;;;;;;;;;;5014966;28;20252;-64
2023/03/29 11:58:23;;;;;;;0.30;0.30;;;;;;;;;;5024677;28;20235;-63
2023/03/29 12:00:54;;;;;;;0.10;0.10;;;;;;;;;;5015028;28;20308;-64
2023/03/29 12:03:27;;;;;;;0.10;0.10;;;;;;;;;;5023724;28;20234;-64
2023/03/29 12:05:56;;;;;;;0.10;0.10;;;;;;;;;;5015261;28;20302;-64
2023/03/29 12:08:25;;;;;;;0.63;0.63;;;;;;;;;;5024499;28;20273;-65
2023/03/29 12:10:55;;;;;;;1.07;0.97;;;;;;;;;;5014965;28;20263;-66
2023/03/29 12:13:26;;;;;;;0.10;0.10;;;;;;;;;;5024329;28;20264;-65
2023/03/29 12:15:55;;;;;;;0.10;0.10;;;;;;;;;;5014909;28;20439;-66
2023/03/29 12:18:23;;;;;;;0.10;0.10;;;;;;;;;;5024435;28;20435;-66
2023/03/29 12:20:53;;;;;;;0.10;0.10;;;;;;;;;;5014039;28;20241;-66
2023/03/29 12:23:19;;;;;;;0.10;0.10;;;;;;;;;;5023459;28;20207;-66
2023/03/29 12:25:52;;;;;;;0.10;0.10;;;;;;;;;;5014114;28;20241;-66
2023/03/29 12:28:23;;;;;;;0.40;0.40;;;;;;;;;;5023739;28;20212;-66
2023/03/29 12:31:01;;;;;;;0.73;0.73;;;;;;;;;;5014135;28;20526;-66
2023/03/29 12:33:42;;;;;;;0.10;0.10;;;;;;;;;;5023548;28;20304;-66
2023/03/29 12:36:15;;;;;;;0.20;0.20;;;;;;;;;;5001004;28;20241;-67
2023/03/29 12:38:42;;;;;;;0.10;0.10;;;;;;;;;;5023944;28;20418;-68
2023/03/29 12:41:14;;;;;;;0.20;0.20;;;;;;;;;;5014008;28;20257;-66
2023/03/29 12:43:42;;;;;;;0.10;0.10;;;;;;;;;;5023947;28;20210;-65
2023/03/29 12:46:11;;;;;;;0.73;0.73;;;;;;;;;;5013792;28;20242;-65
2023/03/29 12:48:39;;;;;;;0.10;0.10;;;;;;;;;;5024465;28;20218;-65
2023/03/29 12:51:08;;;;;;;0.10;0.10;;;;;;;;;;5014268;28;20244;-65
2023/03/29 12:53:35;;;;;;;0.10;0.10;;;;;;;;;;5024361;28;20228;-65
2023/03/29 12:56:10;;;;;;;0.10;0.10;;;;;;;;;;5014225;28;20243;-65
2023/03/29 12:58:41;;;;;;;0.10;0.10;;;;;;;;;;5023698;28;20496;-65
2023/03/29 13:01:09;;;;;;;2.07;2.00;;;;;;;;;;5013314;28;20300;-65
2023/03/29 13:03:41;;;;;;;0.10;0.10;;;;;;;;;;5023357;28;20197;-66
2023/03/29 13:06:09;;;;;;;0.10;0.10;;;;;;;;;;5013929;28;20250;-65
2023/03/29 13:08:36;;;;;;;0.73;0.73;;;;;;;;;;5023394;28;20210;-66
2023/03/29 13:11:03;;;;;;;0.10;0.10;;;;;;;;;;5013705;28;20274;-64
2023/03/29 13:13:33;;;;;;;0.10;0.10;;;;;;;;;;5023651;28;20274;-64
2023/03/29 13:16:11;;;;;;;0.70;0.70;;;;;;;;;;5018080;28;20576;-65
2023/03/29 13:18:44;;;;;;;0.10;0.10;;;;;;;;;;5027179;28;20212;-65
2023/03/29 13:21:15;;;;;;;0.20;0.20;;;;;;;;;;5017491;28;20310;-65
2023/03/29 13:23:46;;;;;;;0.10;0.10;;;;;;;;;;5027409;28;20417;-65
2023/03/29 13:26:33;;;;;;;1.40;0.40;;;;;;;;;;5016855;28;20304;-65
2023/03/29 13:29:08;;;;;;;0.10;0.10;;;;;;;;;;5027379;28;20251;-64
2023/03/29 13:31:38;;;;;;;0.10;0.10;;;;;;;;;;5016906;28;20443;-64
2023/03/29 13:34:12;;;;;;;0.10;0.10;;;;;;;;;;5027760;28;20454;-64
2023/03/29 13:36:44;;;;;;;0.10;0.10;;;;;;;;;;5017314;28;20308;-64
2023/03/29 13:39:15;;;;;;;0.40;0.40;;;;;;;;;;5027887;28;20213;-64
2023/03/29 13:41:49;;;;;;;0.10;0.10;;;;;;;;;;5017138;28;20261;-65
2023/03/29 13:44:29;;;;;;;0.10;0.10;;;;;;;;;;5028286;28;20424;-65
2023/03/29 13:47:05;;;;;;;0.10;0.10;;;;;;;;;;5017124;28;20583;-65
2023/03/29 13:49:34;;;;;;;0.43;0.43;;;;;;;;;;5028264;28;20205;-64
2023/03/29 13:52:14;;;;;;;0.10;0.10;;;;;;;;;;5016972;28;20312;-64
2023/03/29 13:54:42;;;;;;;0.30;0.30;;;;;;;;;;5028123;28;20240;-65
2023/03/29 13:57:11;;;;;;;0.20;0.20;;;;;;;;;;5016616;28;20241;-64
2023/03/29 13:59:42;;;;;;;0.63;0.63;;;;;;;;;;5027877;28;20217;-64
2023/03/29 14:02:21;;;;;;;0.10;0.10;;;;;;;;;;5016597;28;20253;-65
2023/03/29 14:04:50;;;;;;;0.10;0.10;;;;;;;;;;5027605;28;20269;-64
2023/03/29 14:07:19;;;;;;;1.03;1.03;;;;;;;;;;5016724;28;20242;-65
2023/03/29 14:09:46;;;;;;;0.20;0.20;;;;;;;;;;5027925;28;20213;-65
2023/03/29 14:12:14;;;;;;;0.43;0.43;;;;;;;;;;5016326;28;20268;-64
2023/03/29 14:14:42;;;;;;;1.60;0.50;;;;;;;;;;5027703;28;20225;-65
2023/03/29 14:17:11;;;;;;;0.10;0.10;;;;;;;;;;5016123;28;20241;-65
2023/03/29 14:19:38;;;;;;;0.20;0.20;;;;;;;;;;5027175;28;20205;-65
2023/03/29 14:22:09;;;;;;;0.10;0.10;;;;;;;;;;5015718;28;20271;-65
2023/03/29 14:24:37;;;;;;;0.10;0.10;;;;;;;;;;5026657;28;20273;-65
2023/03/29 14:27:04;;;;;;;0.10;0.10;;;;;;;;;;5015779;28;20241;-65
2023/03/29 14:29:31;;;;;;;0.10;0.10;;;;;;;;;;5026948;28;20276;-64
2023/03/29 14:32:07;;;;;;;0.10;0.10;;;;;;;;;;5016308;28;20252;-65
2023/03/29 14:34:34;;;;;;;0.10;0.10;;;;;;;;;;5027580;28;20296;-64
2023/03/29 14:37:00;;;;;;;0.10;0.10;;;;;;;;;;5016096;28;20243;-65
2023/03/29 14:39:31;;;;;;;0.20;0.20;;;;;;;;;;5027176;28;20229;-64
2023/03/29 14:41:58;;;;;;;0.10;0.10;;;;;;;;;;5016100;28;20343;-66
2023/03/29 14:44:25;;;;;;;0.10;0.10;;;;;;;;;;5026934;28;20275;-65
2023/03/29 14:46:53;;;;;;;0.10;0.10;;;;;;;;;;5015884;28;20472;-65
2023/03/29 14:49:20;;;;;;;1.03;1.03;;;;;;;;;;5026014;28;20215;-65
2023/03/29 14:51:47;;;;;;;0.10;0.10;;;;;;;;;;5015120;28;20309;-64